createdAt,value
2018-06-22T00:00:27.527Z,0.00
2018-06-22T00:01:27.544Z,0.00
2018-06-22T00:02:27.562Z,0.00
2018-06-22T00:03:27.584Z,0.00
2018-06-22T00:04:27.600Z,0.00
2018-06-22T00:05:27.617Z,0.00
2018-06-22T00:06:27.642Z,0.00
2018-06-22T00:07:27.655Z,0.00
2018-06-22T00:08:27.676Z,0.00
2018-06-22T00:09:27.693Z,0.00
2018-06-22T00:10:27.711Z,0.00
2018-06-22T00:11:27.730Z,0.00
2018-06-22T00:12:27.749Z,0.00
2018-06-22T00:13:27.769Z,0.00
2018-06-22T00:14:27.789Z,0.00
2018-06-22T00:15:27.801Z,0.00
2018-06-22T00:16:27.821Z,0.00
2018-06-22T00:17:27.840Z,0.00
2018-06-22T00:18:27.856Z,0.00
2018-06-22T00:19:27.874Z,0.00
2018-06-22T00:20:27.894Z,0.00
2018-06-22T00:21:27.911Z,0.00
2018-06-22T00:22:27.929Z,0.00
2018-06-22T00:23:27.948Z,0.00
2018-06-22T00:24:27.969Z,0.00
2018-06-22T00:25:27.986Z,0.00
2018-06-22T00:26:28.005Z,0.00
2018-06-22T00:27:28.029Z,0.00
2018-06-22T00:28:28.042Z,0.00
2018-06-22T00:29:28.059Z,0.00
2018-06-22T00:30:28.078Z,0.00
2018-06-22T00:31:28.096Z,0.00
2018-06-22T00:32:28.116Z,0.00
2018-06-22T00:33:28.133Z,0.00
2018-06-22T00:34:28.154Z,0.00
2018-06-22T00:35:28.168Z,0.00
2018-06-22T00:36:28.188Z,0.00
2018-06-22T00:37:28.207Z,0.00
2018-06-22T00:38:28.224Z,0.00
2018-06-22T00:39:28.245Z,0.00
2018-06-22T00:40:28.262Z,0.00
2018-06-22T00:41:28.280Z,0.00
2018-06-22T00:42:28.297Z,0.00
2018-06-22T00:43:28.312Z,0.00
2018-06-22T00:44:28.332Z,0.00
2018-06-22T00:45:28.349Z,0.00
2018-06-22T00:46:28.375Z,0.00
2018-06-22T00:47:28.388Z,0.00
2018-06-22T00:48:28.408Z,0.00
2018-06-22T00:49:28.421Z,0.00
2018-06-22T00:50:28.443Z,0.00
2018-06-22T00:51:28.460Z,0.00
2018-06-22T00:52:28.477Z,0.00
2018-06-22T00:53:28.497Z,0.00
2018-06-22T00:54:28.515Z,0.00
2018-06-22T00:55:28.533Z,0.00
2018-06-22T00:56:28.550Z,0.00
2018-06-22T00:57:28.571Z,0.00
2018-06-22T00:58:28.585Z,0.00
2018-06-22T00:59:28.606Z,0.00
2018-06-22T01:00:28.625Z,0.00
2018-06-22T01:01:28.643Z,0.00
2018-06-22T01:02:28.661Z,0.00
2018-06-22T01:03:28.680Z,0.00
2018-06-22T01:04:28.696Z,0.00
2018-06-22T01:05:28.715Z,0.00
2018-06-22T01:06:28.733Z,0.00
2018-06-22T01:07:28.750Z,0.00
2018-06-22T01:08:28.770Z,0.00
2018-06-22T01:09:28.787Z,0.00
2018-06-22T01:10:28.804Z,0.00
2018-06-22T01:11:28.822Z,0.00
2018-06-22T01:12:28.841Z,0.00
2018-06-22T01:13:28.858Z,0.00
2018-06-22T01:14:28.879Z,0.00
2018-06-22T01:15:28.895Z,0.00
2018-06-22T01:16:28.917Z,0.00
2018-06-22T01:17:28.931Z,0.00
2018-06-22T01:18:28.949Z,0.00
2018-06-22T01:19:28.972Z,0.00
2018-06-22T01:20:28.990Z,0.00
2018-06-22T01:21:29.004Z,0.00
2018-06-22T01:22:29.026Z,0.00
2018-06-22T01:23:29.041Z,0.00
2018-06-22T01:24:29.058Z,0.00
2018-06-22T01:25:29.076Z,0.00
2018-06-22T01:26:29.098Z,0.00
2018-06-22T01:27:29.113Z,0.00
2018-06-22T01:28:29.131Z,0.00
2018-06-22T01:29:29.151Z,0.00
2018-06-22T01:30:29.169Z,0.00
2018-06-22T01:31:29.189Z,0.00
2018-06-22T01:32:29.210Z,0.00
2018-06-22T01:33:29.225Z,0.00
2018-06-22T01:34:29.240Z,0.00
2018-06-22T01:35:29.259Z,0.00
2018-06-22T01:36:29.277Z,0.00
2018-06-22T01:37:29.295Z,0.00
2018-06-22T01:38:29.316Z,0.00
2018-06-22T01:39:29.331Z,0.00
2018-06-22T01:40:29.349Z,0.00
2018-06-22T01:41:29.369Z,0.00
2018-06-22T01:42:29.388Z,0.00
2018-06-22T01:43:29.404Z,0.00
2018-06-22T01:44:29.424Z,0.00
2018-06-22T01:45:29.445Z,0.00
2018-06-22T01:46:29.464Z,0.00
2018-06-22T01:47:29.475Z,0.00
2018-06-22T01:48:29.497Z,0.00
2018-06-22T01:49:29.513Z,0.00
2018-06-22T01:50:29.533Z,0.00
2018-06-22T01:51:29.549Z,0.00
2018-06-22T01:52:29.570Z,0.00
2018-06-22T01:53:29.585Z,0.00
2018-06-22T01:54:29.605Z,0.00
2018-06-22T01:55:29.624Z,0.00
2018-06-22T01:56:29.645Z,0.00
2018-06-22T01:57:29.658Z,0.00
2018-06-22T01:58:29.678Z,0.00
2018-06-22T01:59:29.694Z,0.00
2018-06-22T02:00:29.714Z,0.00
2018-06-22T02:01:29.730Z,0.00
2018-06-22T02:02:29.750Z,0.00
2018-06-22T02:03:29.773Z,0.00
2018-06-22T02:04:29.786Z,0.00
2018-06-22T02:05:29.804Z,0.00
2018-06-22T02:06:29.828Z,0.00
2018-06-22T02:07:29.840Z,0.00
2018-06-22T02:08:29.862Z,0.00
2018-06-22T02:09:29.878Z,0.00
2018-06-22T02:10:29.896Z,0.00
2018-06-22T02:11:29.913Z,0.00
2018-06-22T02:12:29.932Z,0.00
2018-06-22T02:13:29.949Z,0.00
2018-06-22T02:14:29.967Z,0.00
2018-06-22T02:15:29.989Z,0.00
2018-06-22T02:16:30.005Z,0.00
2018-06-22T02:17:30.022Z,0.00
2018-06-22T02:18:30.042Z,0.00
2018-06-22T02:19:30.062Z,0.00
2018-06-22T02:20:30.077Z,0.00
2018-06-22T02:21:30.095Z,0.00
2018-06-22T02:22:30.113Z,0.00
2018-06-22T02:23:30.134Z,0.00
2018-06-22T02:24:30.150Z,0.00
2018-06-22T02:25:30.169Z,0.00
2018-06-22T02:26:30.189Z,0.00
2018-06-22T02:27:30.205Z,0.00
2018-06-22T02:28:30.223Z,0.00
2018-06-22T02:29:30.240Z,0.00
2018-06-22T02:30:30.259Z,0.00
2018-06-22T02:31:30.282Z,0.00
2018-06-22T02:32:30.296Z,0.00
2018-06-22T02:33:30.318Z,0.00
2018-06-22T02:34:30.335Z,0.00
2018-06-22T02:35:30.352Z,4.00
2018-06-22T02:36:30.368Z,4.00
2018-06-22T02:37:30.386Z,4.00
2018-06-22T02:38:30.404Z,4.00
2018-06-22T02:39:30.425Z,0.00
2018-06-22T02:40:30.443Z,0.00
2018-06-22T02:41:30.460Z,4.00
2018-06-22T02:42:30.479Z,4.00
2018-06-22T02:43:30.496Z,4.00
2018-06-22T02:44:30.514Z,4.00
2018-06-22T02:45:30.532Z,4.00
2018-06-22T02:46:30.553Z,8.00
2018-06-22T02:47:30.568Z,4.00
2018-06-22T02:48:30.589Z,4.00
2018-06-22T02:49:30.609Z,4.00
2018-06-22T02:50:30.626Z,8.00
2018-06-22T02:51:30.641Z,8.00
2018-06-22T02:52:30.663Z,12.00
2018-06-22T02:53:30.679Z,12.00
2018-06-22T02:54:30.696Z,8.00
2018-06-22T02:55:30.715Z,12.00
2018-06-22T02:56:30.736Z,8.00
2018-06-22T02:57:30.749Z,12.00
2018-06-22T02:58:30.771Z,16.00
2018-06-22T02:59:30.786Z,16.00
2018-06-22T03:00:30.803Z,12.00
2018-06-22T03:01:30.827Z,12.00
2018-06-22T03:02:30.846Z,16.00
2018-06-22T03:03:30.861Z,24.00
2018-06-22T03:04:30.877Z,24.00
2018-06-22T03:05:30.894Z,28.00
2018-06-22T03:06:30.916Z,32.00
2018-06-22T03:07:30.935Z,36.00
2018-06-22T03:08:30.950Z,40.00
2018-06-22T03:09:30.966Z,44.00
2018-06-22T03:10:30.988Z,44.00
2018-06-22T03:11:31.006Z,44.00
2018-06-22T03:12:31.024Z,56.00
2018-06-22T03:13:31.039Z,56.00
2018-06-22T03:14:31.060Z,56.00
2018-06-22T03:15:31.080Z,60.00
2018-06-22T03:16:31.099Z,64.00
2018-06-22T03:17:31.114Z,64.00
2018-06-22T03:18:31.134Z,64.00
2018-06-22T03:19:31.149Z,64.00
2018-06-22T03:20:31.167Z,60.00
2018-06-22T03:21:31.183Z,56.00
2018-06-22T03:22:31.206Z,64.00
2018-06-22T03:23:31.221Z,68.00
2018-06-22T03:24:31.240Z,64.00
2018-06-22T03:25:31.257Z,60.00
2018-06-22T03:26:31.276Z,60.00
2018-06-22T03:27:31.294Z,72.00
2018-06-22T03:28:31.312Z,76.00
2018-06-22T03:29:31.332Z,80.00
2018-06-22T03:30:31.352Z,80.00
2018-06-22T03:31:31.372Z,96.00
2018-06-22T03:32:31.387Z,96.00
2018-06-22T03:33:31.404Z,88.00
2018-06-22T03:34:31.423Z,104.00
2018-06-22T03:35:31.441Z,80.00
2018-06-22T03:36:31.460Z,84.00
2018-06-22T03:37:31.479Z,96.00
2018-06-22T03:38:31.496Z,100.00
2018-06-22T03:39:31.520Z,124.00
2018-06-22T03:40:31.534Z,124.00
2018-06-22T03:41:31.550Z,136.00
2018-06-22T03:42:31.566Z,124.00
2018-06-22T03:43:31.585Z,120.00
2018-06-22T03:44:31.605Z,128.00
2018-06-22T03:45:31.620Z,120.00
2018-06-22T03:46:31.641Z,124.00
2018-06-22T03:47:31.660Z,120.00
2018-06-22T03:48:31.680Z,116.00
2018-06-22T03:49:31.696Z,112.00
2018-06-22T03:50:31.716Z,112.00
2018-06-22T03:51:31.730Z,120.00
2018-06-22T03:52:31.751Z,140.00
2018-06-22T03:53:31.770Z,156.00
2018-06-22T03:54:31.787Z,148.00
2018-06-22T03:55:31.804Z,144.00
2018-06-22T03:56:31.825Z,140.00
2018-06-22T03:57:31.848Z,140.00
2018-06-22T03:58:31.860Z,148.00
2018-06-22T03:59:31.878Z,152.00
2018-06-22T04:00:31.899Z,156.00
2018-06-22T04:01:31.915Z,164.00
2018-06-22T04:02:31.934Z,168.00
2018-06-22T04:03:31.950Z,176.00
2018-06-22T04:04:31.970Z,208.00
2018-06-22T04:05:31.987Z,228.00
2018-06-22T04:06:32.006Z,224.00
2018-06-22T04:07:32.027Z,220.00
2018-06-22T04:08:32.043Z,232.00
2018-06-22T04:09:32.058Z,240.00
2018-06-22T04:10:32.079Z,212.00
2018-06-22T04:11:32.097Z,200.00
2018-06-22T04:12:32.118Z,196.00
2018-06-22T04:13:32.131Z,204.00
2018-06-22T04:14:32.149Z,220.00
2018-06-22T04:15:32.171Z,240.00
2018-06-22T04:16:32.187Z,252.00
2018-06-22T04:17:32.203Z,256.00
2018-06-22T04:18:32.222Z,256.00
2018-06-22T04:19:32.240Z,244.00
2018-06-22T04:20:32.258Z,224.00
2018-06-22T04:21:32.280Z,220.00
2018-06-22T04:22:32.298Z,232.00
2018-06-22T04:23:32.314Z,244.00
2018-06-22T04:24:32.331Z,264.00
2018-06-22T04:25:32.348Z,264.00
2018-06-22T04:26:32.366Z,236.00
2018-06-22T04:27:32.384Z,208.00
2018-06-22T04:28:32.403Z,212.00
2018-06-22T04:29:32.419Z,256.00
2018-06-22T04:30:32.443Z,336.00
2018-06-22T04:31:32.458Z,416.00
2018-06-22T04:32:32.479Z,432.00
2018-06-22T04:33:32.495Z,396.00
2018-06-22T04:34:32.514Z,380.00
2018-06-22T04:35:32.531Z,392.00
2018-06-22T04:36:32.549Z,428.00
2018-06-22T04:37:32.568Z,448.00
2018-06-22T04:38:32.589Z,440.00
2018-06-22T04:39:32.602Z,424.00
2018-06-22T04:40:32.623Z,408.00
2018-06-22T04:41:32.644Z,404.00
2018-06-22T04:42:32.659Z,420.00
2018-06-22T04:43:32.677Z,408.00
2018-06-22T04:44:32.696Z,424.00
2018-06-22T04:45:32.712Z,472.00
2018-06-22T04:46:32.731Z,500.00
2018-06-22T04:47:32.780Z,496.00
2018-06-22T04:48:32.770Z,476.00
2018-06-22T04:49:32.786Z,468.00
2018-06-22T04:50:32.801Z,476.00
2018-06-22T04:51:32.821Z,492.00
2018-06-22T04:52:32.841Z,556.00
2018-06-22T04:53:32.856Z,604.00
2018-06-22T04:54:32.881Z,660.00
2018-06-22T04:55:32.892Z,624.00
2018-06-22T04:56:32.912Z,648.00
2018-06-22T04:57:32.933Z,704.00
2018-06-22T04:58:32.949Z,712.00
2018-06-22T04:59:32.965Z,800.00
2018-06-22T05:00:32.984Z,840.00
2018-06-22T05:01:33.005Z,896.00
2018-06-22T05:02:33.019Z,964.00
2018-06-22T05:03:33.043Z,1024.00
2018-06-22T05:04:33.057Z,1028.00
2018-06-22T05:05:33.078Z,1008.00
2018-06-22T05:06:33.095Z,1132.00
2018-06-22T05:07:33.114Z,1184.00
2018-06-22T05:08:33.131Z,1248.00
2018-06-22T05:09:33.148Z,1356.00
2018-06-22T05:10:33.166Z,1416.00
2018-06-22T05:11:33.183Z,1272.00
2018-06-22T05:12:33.205Z,1240.00
2018-06-22T05:13:33.222Z,1284.00
2018-06-22T05:14:33.238Z,1340.00
2018-06-22T05:15:33.256Z,1200.00
2018-06-22T05:16:33.279Z,984.00
2018-06-22T05:17:33.296Z,936.00
2018-06-22T05:18:33.311Z,952.00
2018-06-22T05:19:33.330Z,1048.00
2018-06-22T05:20:33.348Z,1044.00
2018-06-22T05:21:33.365Z,1136.00
2018-06-22T05:22:33.436Z,1412.00
2018-06-22T05:23:33.402Z,1896.00
2018-06-22T05:24:33.425Z,2208.00
2018-06-22T05:25:33.439Z,1972.00
2018-06-22T05:26:33.460Z,1704.00
2018-06-22T05:27:33.477Z,1840.00
2018-06-22T05:28:33.498Z,1828.00
2018-06-22T05:29:33.511Z,1472.00
2018-06-22T05:30:33.530Z,1320.00
2018-06-22T05:31:33.551Z,1256.00
2018-06-22T05:32:33.567Z,1412.00
2018-06-22T05:33:33.588Z,1572.00
2018-06-22T05:34:33.607Z,1600.00
2018-06-22T05:35:33.623Z,1516.00
2018-06-22T05:36:33.641Z,1552.00
2018-06-22T05:37:33.661Z,1272.00
2018-06-22T05:38:33.676Z,1064.00
2018-06-22T05:39:33.697Z,1120.00
2018-06-22T05:40:33.713Z,1896.00
2018-06-22T05:41:33.773Z,2688.00
2018-06-22T05:42:33.752Z,2448.00
2018-06-22T05:43:33.771Z,3464.00
2018-06-22T05:44:33.789Z,3904.00
2018-06-22T05:45:33.806Z,4212.00
2018-06-22T05:46:33.825Z,4924.00
2018-06-22T05:47:33.846Z,5988.00
2018-06-22T05:48:33.859Z,7420.00
2018-06-22T05:49:33.877Z,7792.00
2018-06-22T05:50:33.915Z,7764.00
2018-06-22T05:51:33.916Z,5860.00
2018-06-22T05:52:33.934Z,5832.00
2018-06-22T05:53:33.953Z,5896.00
2018-06-22T05:54:33.969Z,5940.00
2018-06-22T05:55:33.990Z,6264.00
2018-06-22T05:56:34.074Z,6492.00
2018-06-22T05:57:34.029Z,6604.00
2018-06-22T05:58:34.042Z,7112.00
2018-06-22T05:59:34.065Z,9620.00
2018-06-22T06:00:34.086Z,11912.00
2018-06-22T06:01:34.099Z,11176.00
2018-06-22T06:02:34.122Z,8900.00
2018-06-22T06:03:34.173Z,7848.00
2018-06-22T06:04:34.163Z,6444.00
2018-06-22T06:05:34.174Z,6384.00
2018-06-22T06:06:34.191Z,6024.00
2018-06-22T06:07:34.223Z,6176.00
2018-06-22T06:08:34.232Z,6184.00
2018-06-22T06:09:34.246Z,6648.00
2018-06-22T06:10:34.271Z,6600.00
2018-06-22T06:11:34.287Z,6984.00
2018-06-22T06:12:34.324Z,7584.00
2018-06-22T06:13:34.322Z,8108.00
2018-06-22T06:14:34.343Z,9344.00
2018-06-22T06:15:34.360Z,9940.00
2018-06-22T06:16:34.385Z,7732.00
2018-06-22T06:17:34.401Z,7044.00
2018-06-22T06:18:34.420Z,7396.00
2018-06-22T06:19:34.435Z,7244.00
2018-06-22T06:20:34.454Z,7924.00
2018-06-22T06:21:34.473Z,6324.00
2018-06-22T06:22:34.495Z,6540.00
2018-06-22T06:23:34.515Z,8744.00
2018-06-22T06:24:34.534Z,20320.00
2018-06-22T06:25:34.553Z,10596.00
2018-06-22T06:26:34.568Z,12676.00
2018-06-22T06:27:34.587Z,9640.00
2018-06-22T06:28:34.613Z,8356.00
2018-06-22T06:29:34.624Z,7396.00
2018-06-22T06:30:34.646Z,9616.00
2018-06-22T06:31:34.663Z,7816.00
2018-06-22T06:32:34.683Z,6900.00
2018-06-22T06:33:34.703Z,5880.00
2018-06-22T06:34:34.726Z,6212.00
2018-06-22T06:35:34.743Z,5380.00
2018-06-22T06:36:34.759Z,5112.00
2018-06-22T06:37:34.779Z,5944.00
2018-06-22T06:38:34.802Z,5988.00
2018-06-22T06:39:34.818Z,6996.00
2018-06-22T06:40:34.835Z,6972.00
2018-06-22T06:41:34.853Z,6824.00
2018-06-22T06:42:34.872Z,6708.00
2018-06-22T06:43:34.892Z,6592.00
2018-06-22T06:44:34.913Z,9324.00
2018-06-22T06:45:34.932Z,8924.00
2018-06-22T06:46:34.949Z,7356.00
2018-06-22T06:47:34.967Z,9936.00
2018-06-22T06:48:34.988Z,8452.00
2018-06-22T06:49:35.028Z,9608.00
2018-06-22T06:50:35.025Z,7944.00
2018-06-22T06:51:35.046Z,8904.00
2018-06-22T06:52:35.065Z,9548.00
2018-06-22T06:53:35.085Z,12708.00
2018-06-22T06:54:35.104Z,12644.00
2018-06-22T06:55:35.120Z,11136.00
2018-06-22T06:56:35.143Z,10052.00
2018-06-22T06:57:35.160Z,7640.00
2018-06-22T06:58:35.179Z,8256.00
2018-06-22T06:59:35.205Z,6916.00
2018-06-22T07:00:35.216Z,7936.00
2018-06-22T07:01:35.240Z,6428.00
2018-06-22T07:02:35.303Z,3768.00
2018-06-22T07:03:35.276Z,4364.00
2018-06-22T07:04:35.295Z,4660.00
2018-06-22T07:05:35.312Z,3840.00
2018-06-22T07:06:35.333Z,5124.00
2018-06-22T07:07:35.353Z,6144.00
2018-06-22T07:08:35.375Z,7480.00
2018-06-22T07:09:35.393Z,10164.00
2018-06-22T07:10:35.414Z,12464.00
2018-06-22T07:11:35.430Z,11468.00
2018-06-22T07:12:35.456Z,38272.00
2018-06-22T07:13:35.474Z,27968.00
2018-06-22T07:14:35.491Z,41888.00
2018-06-22T07:15:35.507Z,51680.00
2018-06-22T07:16:35.528Z,46848.00
2018-06-22T07:17:35.547Z,45632.00
2018-06-22T07:18:35.569Z,58144.00
2018-06-22T07:19:35.587Z,57440.00
2018-06-22T07:20:35.606Z,55872.00
2018-06-22T07:21:35.627Z,55232.00
2018-06-22T07:22:35.649Z,61088.00
2018-06-22T07:23:35.667Z,43040.00
2018-06-22T07:24:35.691Z,27584.00
2018-06-22T07:25:35.707Z,16432.00
2018-06-22T07:26:35.730Z,11664.00
2018-06-22T07:27:35.753Z,9528.00
2018-06-22T07:28:35.773Z,10328.00
2018-06-22T07:29:35.794Z,12204.00
2018-06-22T07:30:35.838Z,12452.00
2018-06-22T07:31:35.834Z,14388.00
2018-06-22T07:32:35.855Z,32896.00
2018-06-22T07:33:35.878Z,62400.00
2018-06-22T07:34:35.899Z,59072.00
2018-06-22T07:35:35.919Z,78784.00
2018-06-22T07:36:35.943Z,78688.00
2018-06-22T07:37:35.965Z,75040.00
2018-06-22T07:38:35.984Z,73248.00
2018-06-22T07:39:36.008Z,49280.00
2018-06-22T07:40:36.027Z,69536.00
2018-06-22T07:41:36.048Z,65856.00
2018-06-22T07:42:36.073Z,64672.00
2018-06-22T07:43:36.094Z,65248.00
2018-06-22T07:44:36.120Z,66912.00
2018-06-22T07:45:36.143Z,15976.00
2018-06-22T07:46:36.160Z,72288.00
2018-06-22T07:47:36.183Z,70816.00
2018-06-22T07:48:36.205Z,72480.00
2018-06-22T07:49:36.228Z,59520.00
2018-06-22T07:50:36.253Z,24768.00
2018-06-22T07:51:36.274Z,16508.00
2018-06-22T07:52:36.297Z,12476.00
2018-06-22T07:53:36.322Z,11148.00
2018-06-22T07:54:36.347Z,10388.00
2018-06-22T07:55:36.368Z,11272.00
2018-06-22T07:56:36.390Z,9444.00
2018-06-22T07:57:36.417Z,16244.00
2018-06-22T07:58:36.486Z,24832.00
2018-06-22T07:59:36.462Z,39968.00
2018-06-22T08:00:36.485Z,70432.00
2018-06-22T08:01:36.511Z,32832.00
2018-06-22T08:02:36.532Z,20512.00
2018-06-22T08:03:36.554Z,39232.00
2018-06-22T08:04:36.576Z,72960.00
2018-06-22T08:05:36.598Z,25920.00
2018-06-22T08:06:36.623Z,27584.00
2018-06-22T08:07:36.643Z,46848.00
2018-06-22T08:08:36.669Z,19488.00
2018-06-22T08:09:36.690Z,21760.00
2018-06-22T08:10:36.715Z,34752.00
2018-06-22T08:11:36.741Z,19136.00
2018-06-22T08:12:36.761Z,19424.00
2018-06-22T08:13:36.786Z,46080.00
2018-06-22T08:14:36.805Z,13156.00
2018-06-22T08:15:36.827Z,11976.00
2018-06-22T08:16:36.850Z,16348.00
2018-06-22T08:17:36.924Z,14432.00
2018-06-22T08:18:36.900Z,14212.00
2018-06-22T08:19:36.918Z,12692.00
2018-06-22T08:20:36.944Z,12988.00
2018-06-22T08:21:36.967Z,14088.00
2018-06-22T08:22:36.991Z,19200.00
2018-06-22T08:23:37.052Z,21920.00
2018-06-22T08:24:37.035Z,21216.00
2018-06-22T08:25:37.055Z,17888.00
2018-06-22T08:26:37.080Z,14272.00
2018-06-22T08:27:37.106Z,10732.00
2018-06-22T08:28:37.124Z,10804.00
2018-06-22T08:29:37.149Z,10816.00
2018-06-22T08:30:37.170Z,11420.00
2018-06-22T08:31:37.193Z,8736.00
2018-06-22T08:32:37.217Z,6460.00
2018-06-22T08:33:37.236Z,4832.00
2018-06-22T08:34:37.259Z,4484.00
2018-06-22T08:35:37.281Z,4608.00
2018-06-22T08:36:37.304Z,4796.00
2018-06-22T08:37:37.323Z,4392.00
2018-06-22T08:38:37.343Z,4984.00
2018-06-22T08:39:37.368Z,6100.00
2018-06-22T08:40:37.389Z,6020.00
2018-06-22T08:41:37.425Z,5208.00
2018-06-22T08:42:37.432Z,4752.00
2018-06-22T08:43:37.453Z,4212.00
2018-06-22T08:44:37.471Z,4440.00
2018-06-22T08:45:37.496Z,5828.00
2018-06-22T08:46:37.517Z,7172.00
2018-06-22T08:47:37.540Z,7412.00
2018-06-22T08:48:37.561Z,7164.00
2018-06-22T08:49:37.575Z,8052.00
2018-06-22T08:50:37.601Z,15192.00
2018-06-22T08:51:37.622Z,50112.00
2018-06-22T08:52:37.640Z,82976.00
2018-06-22T08:53:37.660Z,91104.00
2018-06-22T08:54:37.682Z,81792.00
2018-06-22T08:55:37.739Z,66816.00
2018-06-22T08:56:37.727Z,95008.00
2018-06-22T08:57:37.746Z,72576.00
2018-06-22T08:58:37.771Z,42496.00
2018-06-22T08:59:37.790Z,40480.00
2018-06-22T09:00:37.812Z,89248.00
2018-06-22T09:01:37.831Z,68928.00
2018-06-22T09:02:37.856Z,33088.00
2018-06-22T09:03:37.879Z,25664.00
2018-06-22T09:04:37.899Z,48128.00
2018-06-22T09:05:37.924Z,77984.00
2018-06-22T09:06:37.946Z,34048.00
2018-06-22T09:07:37.971Z,30560.00
2018-06-22T09:08:37.993Z,28608.00
2018-06-22T09:09:38.015Z,28416.00
2018-06-22T09:10:38.036Z,34336.00
2018-06-22T09:11:38.062Z,24448.00
2018-06-22T09:12:38.101Z,36704.00
2018-06-22T09:13:38.109Z,21888.00
2018-06-22T09:14:38.226Z,22240.00
2018-06-22T09:15:38.159Z,19488.00
2018-06-22T09:16:38.180Z,16032.00
2018-06-22T09:17:38.202Z,11660.00
2018-06-22T09:18:38.222Z,29952.00
2018-06-22T09:19:38.261Z,24864.00
2018-06-22T09:20:38.269Z,52512.00
2018-06-22T09:21:38.293Z,23008.00
2018-06-22T09:22:38.318Z,19616.00
2018-06-22T09:23:38.342Z,20768.00
2018-06-22T09:24:38.366Z,40320.00
2018-06-22T09:25:38.386Z,28800.00
2018-06-22T09:26:38.409Z,26560.00
2018-06-22T09:27:38.432Z,25568.00
2018-06-22T09:28:38.453Z,22272.00
2018-06-22T09:29:38.477Z,14984.00
2018-06-22T09:30:38.502Z,11076.00
2018-06-22T09:31:38.524Z,9980.00
2018-06-22T09:32:38.547Z,7772.00
2018-06-22T09:33:38.567Z,6268.00
2018-06-22T09:34:38.590Z,6184.00
2018-06-22T09:35:38.612Z,7304.00
2018-06-22T09:36:38.698Z,8824.00
2018-06-22T09:37:38.663Z,10708.00
2018-06-22T09:38:38.683Z,12196.00
2018-06-22T09:39:38.706Z,12624.00
2018-06-22T09:40:38.726Z,11852.00
2018-06-22T09:41:38.747Z,11220.00
2018-06-22T09:42:38.783Z,10928.00
2018-06-22T09:43:38.795Z,10768.00
2018-06-22T09:44:38.814Z,10840.00
2018-06-22T09:45:38.836Z,10724.00
2018-06-22T09:46:38.859Z,12032.00
2018-06-22T09:47:38.881Z,16868.00
2018-06-22T09:48:38.903Z,16944.00
2018-06-22T09:49:38.923Z,18080.00
2018-06-22T09:50:38.943Z,84992.00
2018-06-22T09:51:38.969Z,83328.00
2018-06-22T09:52:38.990Z,82368.00
2018-06-22T09:53:39.009Z,79264.00
2018-06-22T09:54:39.034Z,50688.00
2018-06-22T09:55:39.055Z,62592.00
2018-06-22T09:56:39.076Z,84192.00
2018-06-22T09:57:39.100Z,69344.00
2018-06-22T09:58:39.123Z,77568.00
2018-06-22T09:59:39.144Z,76128.00
2018-06-22T10:00:39.167Z,73760.00
2018-06-22T10:01:39.191Z,72064.00
2018-06-22T10:02:39.218Z,66016.00
2018-06-22T10:03:39.236Z,62272.00
2018-06-22T10:04:39.275Z,51232.00
2018-06-22T10:05:39.281Z,41824.00
2018-06-22T10:06:39.308Z,33920.00
2018-06-22T10:07:39.333Z,37216.00
2018-06-22T10:08:39.357Z,36000.00
2018-06-22T10:09:39.381Z,37888.00
2018-06-22T10:10:39.406Z,51456.00
2018-06-22T10:11:39.428Z,29024.00
2018-06-22T10:12:39.453Z,26176.00
2018-06-22T10:13:39.478Z,26144.00
2018-06-22T10:14:39.501Z,34112.00
2018-06-22T10:15:39.527Z,27712.00
2018-06-22T10:16:39.552Z,27616.00
2018-06-22T10:17:39.579Z,28896.00
2018-06-22T10:18:39.606Z,23520.00
2018-06-22T10:19:39.657Z,28032.00
2018-06-22T10:20:39.651Z,77856.00
2018-06-22T10:21:39.678Z,30528.00
2018-06-22T10:22:39.702Z,28000.00
2018-06-22T10:23:39.725Z,25664.00
2018-06-22T10:24:39.750Z,24960.00
2018-06-22T10:25:39.776Z,26656.00
2018-06-22T10:26:39.798Z,20992.00
2018-06-22T10:27:39.822Z,16704.00
2018-06-22T10:28:39.850Z,14108.00
2018-06-22T10:29:39.870Z,11788.00
2018-06-22T10:30:39.897Z,9644.00
2018-06-22T10:31:39.920Z,9340.00
2018-06-22T10:32:39.947Z,12484.00
2018-06-22T10:33:39.970Z,15476.00
2018-06-22T10:34:39.990Z,17376.00
2018-06-22T10:35:40.018Z,17856.00
2018-06-22T10:36:40.041Z,18944.00
2018-06-22T10:37:40.064Z,19904.00
2018-06-22T10:38:40.087Z,24160.00
2018-06-22T10:39:40.108Z,42816.00
2018-06-22T10:40:40.133Z,79360.00
2018-06-22T10:41:40.157Z,71104.00
2018-06-22T10:42:40.180Z,37024.00
2018-06-22T10:43:40.201Z,44000.00
2018-06-22T10:44:40.223Z,29312.00
2018-06-22T10:45:40.303Z,51456.00
2018-06-22T10:46:40.270Z,62784.00
2018-06-22T10:47:40.294Z,41856.00
2018-06-22T10:48:40.315Z,39264.00
2018-06-22T10:49:40.339Z,32672.00
2018-06-22T10:50:40.365Z,28896.00
2018-06-22T10:51:40.579Z,26880.00
2018-06-22T10:52:40.448Z,26080.00
2018-06-22T10:53:40.433Z,25888.00
2018-06-22T10:54:40.458Z,26720.00
2018-06-22T10:55:40.485Z,28576.00
2018-06-22T10:56:40.510Z,30944.00
2018-06-22T10:57:40.534Z,31776.00
2018-06-22T10:58:40.558Z,35296.00
2018-06-22T10:59:40.598Z,43968.00
2018-06-22T11:00:40.607Z,56096.00
2018-06-22T11:01:40.633Z,17224.00
2018-06-22T11:02:40.657Z,50144.00
2018-06-22T11:03:40.686Z,39680.00
2018-06-22T11:04:40.711Z,33856.00
2018-06-22T11:05:40.747Z,34848.00
2018-06-22T11:06:40.761Z,17812.00
2018-06-22T11:07:40.786Z,15020.00
2018-06-22T11:08:40.819Z,34720.00
2018-06-22T11:09:40.842Z,32896.00
2018-06-22T11:10:40.867Z,31776.00
2018-06-22T11:11:40.891Z,16684.00
2018-06-22T11:12:40.921Z,30912.00
2018-06-22T11:13:40.947Z,37600.00
2018-06-22T11:14:40.973Z,27104.00
2018-06-22T11:15:41.019Z,17696.00
2018-06-22T11:16:41.077Z,18400.00
2018-06-22T11:17:41.053Z,17984.00
2018-06-22T11:18:41.079Z,21248.00
2018-06-22T11:19:41.103Z,16752.00
2018-06-22T11:20:41.130Z,14248.00
2018-06-22T11:21:41.156Z,15768.00
2018-06-22T11:22:41.182Z,18944.00
2018-06-22T11:23:41.212Z,19424.00
2018-06-22T11:24:41.249Z,22944.00
2018-06-22T11:25:41.261Z,19136.00
2018-06-22T11:26:41.288Z,15328.00
2018-06-22T11:27:41.312Z,13348.00
2018-06-22T11:28:41.340Z,26688.00
2018-06-22T11:29:41.363Z,19296.00
2018-06-22T11:30:41.455Z,28960.00
2018-06-22T11:31:41.414Z,33376.00
2018-06-22T11:32:41.438Z,27008.00
2018-06-22T11:33:41.463Z,22112.00
2018-06-22T11:34:41.492Z,20064.00
2018-06-22T11:35:41.544Z,17696.00
2018-06-22T11:36:41.539Z,18080.00
2018-06-22T11:37:41.563Z,14900.00
2018-06-22T11:38:41.589Z,11812.00
2018-06-22T11:39:41.613Z,10112.00
2018-06-22T11:40:41.641Z,7836.00
2018-06-22T11:41:41.662Z,6364.00
2018-06-22T11:42:41.689Z,6208.00
2018-06-22T11:43:41.714Z,6320.00
2018-06-22T11:44:41.736Z,7708.00
2018-06-22T11:45:41.760Z,8796.00
2018-06-22T11:46:41.786Z,9288.00
2018-06-22T11:47:41.811Z,9504.00
2018-06-22T11:48:41.836Z,11000.00
2018-06-22T11:49:41.857Z,14088.00
2018-06-22T11:50:41.879Z,18784.00
2018-06-22T11:51:41.903Z,21824.00
2018-06-22T11:52:41.927Z,25664.00
2018-06-22T11:53:41.952Z,25696.00
2018-06-22T11:54:41.979Z,28032.00
2018-06-22T11:55:42.000Z,30176.00
2018-06-22T11:56:42.020Z,27648.00
2018-06-22T11:57:42.044Z,25664.00
2018-06-22T11:58:42.068Z,23264.00
2018-06-22T11:59:42.089Z,22496.00
2018-06-22T12:00:42.117Z,21344.00
2018-06-22T12:01:42.143Z,21856.00
2018-06-22T12:02:42.162Z,21664.00
2018-06-22T12:03:42.187Z,15520.00
2018-06-22T12:04:42.272Z,23776.00
2018-06-22T12:05:42.236Z,22976.00
2018-06-22T12:06:42.257Z,14296.00
2018-06-22T12:07:42.283Z,14936.00
2018-06-22T12:08:42.312Z,14496.00
2018-06-22T12:09:42.334Z,14332.00
2018-06-22T12:10:42.358Z,14788.00
2018-06-22T12:11:42.383Z,13420.00
2018-06-22T12:12:42.406Z,12108.00
2018-06-22T12:13:42.429Z,16200.00
2018-06-22T12:14:42.456Z,15516.00
2018-06-22T12:15:42.480Z,13620.00
2018-06-22T12:16:42.508Z,11404.00
2018-06-22T12:17:42.532Z,11452.00
2018-06-22T12:18:42.556Z,11236.00